createdAt,value
2018-07-28T00:01:47.721Z,26.12
2018-07-28T00:04:16.808Z,26.11
2018-07-28T00:06:45.852Z,26.05
2018-07-28T00:09:14.920Z,26.03
2018-07-28T00:11:43.961Z,25.98
2018-07-28T00:14:13.032Z,25.99
2018-07-28T00:16:42.137Z,25.85
2018-07-28T00:19:11.207Z,25.87
2018-07-28T00:21:40.254Z,25.80
2018-07-28T00:24:09.320Z,25.73
2018-07-28T00:26:38.391Z,25.65
2018-07-28T00:29:07.486Z,25.61
2018-07-28T00:31:36.889Z,25.67
2018-07-28T00:34:05.985Z,25.72
2018-07-28T00:36:35.164Z,25.52
2018-07-28T00:39:06.937Z,25.31
2018-07-28T00:41:36.423Z,25.41
2018-07-28T00:44:05.621Z,25.52
2018-07-28T00:46:34.739Z,25.45
2018-07-28T00:49:03.941Z,25.40
2018-07-28T00:51:33.376Z,25.33
2018-07-28T00:54:02.511Z,25.20
2018-07-28T00:56:31.731Z,25.20
2018-07-28T00:59:00.837Z,25.04
2018-07-28T01:01:30.015Z,25.10
2018-07-28T01:03:59.080Z,25.04
2018-07-28T01:06:28.240Z,25.02
2018-07-28T01:08:57.530Z,25.10
2018-07-28T01:11:26.973Z,25.09
2018-07-28T01:13:56.021Z,24.97
2018-07-28T01:16:25.105Z,24.93
2018-07-28T01:18:54.201Z,24.86
2018-07-28T01:21:23.399Z,24.84
2018-07-28T01:23:52.457Z,24.87
2018-07-28T01:26:21.549Z,24.89
2018-07-28T01:28:54.777Z,24.78
2018-07-28T01:31:23.908Z,24.75
2018-07-28T01:33:53.022Z,24.66
2018-07-28T01:36:22.107Z,24.52
2018-07-28T01:38:51.124Z,24.32
2018-07-28T01:41:20.453Z,24.24
2018-07-28T01:43:49.599Z,24.25
2018-07-28T01:46:18.686Z,24.35
2018-07-28T01:48:47.692Z,24.41
2018-07-28T01:51:16.811Z,24.50
2018-07-28T01:53:45.875Z,24.25
2018-07-28T01:56:14.934Z,23.98
2018-07-28T01:58:44.125Z,23.98
2018-07-28T02:01:13.229Z,23.96
2018-07-28T02:03:42.302Z,23.92
2018-07-28T02:08:46.645Z,23.88
2018-07-28T02:11:15.769Z,23.69
2018-07-28T02:13:44.884Z,23.73
2018-07-28T02:16:13.960Z,24.05
2018-07-28T02:18:43.076Z,24.24
2018-07-28T02:21:12.132Z,24.43
2018-07-28T02:23:41.266Z,24.62
2018-07-28T02:26:10.328Z,24.64
2018-07-28T02:28:39.699Z,24.67
2018-07-28T02:31:08.756Z,24.59
2018-07-28T02:33:37.840Z,24.56
2018-07-28T02:36:07.585Z,24.40
2018-07-28T02:38:36.668Z,24.47
2018-07-28T02:41:05.777Z,24.40
2018-07-28T02:43:34.864Z,24.49
2018-07-28T02:46:03.998Z,24.63
2018-07-28T02:48:33.110Z,24.55
2018-07-28T02:51:02.217Z,24.46
2018-07-28T02:53:31.342Z,24.34
2018-07-28T02:56:00.436Z,24.24
2018-07-28T02:58:29.566Z,24.27
2018-07-28T03:00:58.683Z,24.26
2018-07-28T03:03:27.747Z,24.11
2018-07-28T03:05:56.841Z,23.93
2018-07-28T03:08:27.845Z,23.84
2018-07-28T03:10:56.921Z,23.99
2018-07-28T03:13:26.517Z,23.96
2018-07-28T03:15:55.631Z,23.95
2018-07-28T03:18:24.690Z,23.98
2018-07-28T03:20:53.778Z,23.99
2018-07-28T03:23:22.842Z,23.94
2018-07-28T03:25:51.920Z,23.90
2018-07-28T03:28:20.953Z,23.86
2018-07-28T03:30:50.013Z,23.75
2018-07-28T03:33:19.082Z,23.60
2018-07-28T03:35:48.154Z,23.55
2018-07-28T03:38:17.235Z,23.51
2018-07-28T03:40:46.344Z,23.47
2018-07-28T03:43:15.405Z,23.49
2018-07-28T03:45:44.537Z,23.39
2018-07-28T03:48:13.633Z,23.30
2018-07-28T03:50:42.991Z,23.27
2018-07-28T03:53:12.072Z,23.37
2018-07-28T03:55:41.186Z,23.39
2018-07-28T03:58:10.266Z,23.12
2018-07-28T04:00:39.346Z,23.01
2018-07-28T04:03:08.477Z,22.77
2018-07-28T04:05:37.579Z,22.75
2018-07-28T04:08:06.647Z,22.86
2018-07-28T04:10:35.775Z,23.03
2018-07-28T04:13:04.935Z,23.09
2018-07-28T04:15:34.001Z,23.17
2018-07-28T04:18:03.096Z,23.20
2018-07-28T04:20:32.127Z,23.20
2018-07-28T04:23:01.194Z,23.26
2018-07-28T04:25:30.249Z,23.08
2018-07-28T04:27:59.366Z,23.22
2018-07-28T04:30:28.411Z,23.43
2018-07-28T04:32:58.402Z,23.41
2018-07-28T04:35:27.434Z,23.46
2018-07-28T04:37:56.569Z,23.73
2018-07-28T04:40:25.682Z,23.71
2018-07-28T04:42:54.809Z,23.84
2018-07-28T04:45:24.232Z,23.96
2018-07-28T04:47:53.326Z,24.04
2018-07-28T04:50:22.377Z,23.88
2018-07-28T04:52:51.614Z,23.78
2018-07-28T04:55:20.689Z,23.93
2018-07-28T04:57:49.769Z,24.12
2018-07-28T05:00:18.908Z,24.12
2018-07-28T05:02:47.992Z,24.06
2018-07-28T05:05:17.096Z,24.23
2018-07-28T05:07:46.242Z,24.08
2018-07-28T05:10:15.272Z,24.12
2018-07-28T05:12:44.345Z,24.19
2018-07-28T05:15:13.411Z,24.28
2018-07-28T05:17:42.490Z,24.41
2018-07-28T05:20:11.573Z,24.51
2018-07-28T05:22:40.631Z,24.60
2018-07-28T05:25:09.785Z,24.66
2018-07-28T05:27:38.831Z,24.50
2018-07-28T05:30:09.376Z,24.25
2018-07-28T05:32:38.458Z,24.23
2018-07-28T05:35:08.834Z,24.53
2018-07-28T05:37:37.892Z,24.72
2018-07-28T05:40:07.011Z,24.66
2018-07-28T05:42:36.143Z,24.63
2018-07-28T05:45:06.000Z,24.59
2018-07-28T05:47:35.315Z,24.57
2018-07-28T05:50:05.096Z,24.48
2018-07-28T05:52:34.186Z,24.55
2018-07-28T05:55:03.303Z,24.56
2018-07-28T05:57:32.841Z,24.70
2018-07-28T06:00:01.892Z,24.65
2018-07-28T06:02:31.081Z,24.95
2018-07-28T06:05:00.107Z,24.97
2018-07-28T06:07:29.266Z,25.10
2018-07-28T06:09:58.369Z,25.16
2018-07-28T06:12:27.466Z,25.16
2018-07-28T06:14:56.572Z,25.14
2018-07-28T06:17:25.675Z,25.27
2018-07-28T06:19:54.760Z,25.22
2018-07-28T06:22:23.963Z,25.31
2018-07-28T06:24:53.039Z,25.39
2018-07-28T06:27:22.148Z,25.55
2018-07-28T06:29:51.202Z,25.67
2018-07-28T06:32:20.263Z,25.72
2018-07-28T06:34:49.367Z,25.78
2018-07-28T06:37:18.465Z,25.85
2018-07-28T06:39:47.574Z,25.93
2018-07-28T06:42:16.718Z,25.88
2018-07-28T06:44:45.790Z,25.87
2018-07-28T06:47:14.944Z,25.90
2018-07-28T06:49:43.997Z,25.96
2018-07-28T06:52:13.129Z,25.96
2018-07-28T06:54:42.161Z,26.09
2018-07-28T06:57:11.321Z,26.20
2018-07-28T06:59:40.412Z,26.17
2018-07-28T07:02:09.520Z,26.15
2018-07-28T07:04:38.609Z,26.21
2018-07-28T07:07:07.764Z,26.27
2018-07-28T07:09:36.872Z,26.34
2018-07-28T07:12:06.159Z,26.41
2018-07-28T07:14:35.299Z,26.42
2018-07-28T07:17:04.394Z,26.45
2018-07-28T07:19:33.465Z,26.51
2018-07-28T07:22:02.650Z,26.56
2018-07-28T07:24:31.885Z,26.50
2018-07-28T07:27:01.079Z,26.60
2018-07-28T07:29:30.289Z,26.56
2018-07-28T07:31:59.673Z,26.48
2018-07-28T07:34:28.894Z,26.48
2018-07-28T07:36:58.401Z,26.57
2018-07-28T07:39:27.556Z,26.57
2018-07-28T07:41:56.789Z,26.64
2018-07-28T07:44:26.007Z,26.61
2018-07-28T07:46:55.053Z,26.59
2018-07-28T07:49:24.245Z,26.51
2018-07-28T07:51:53.392Z,26.68
2018-07-28T07:54:22.482Z,26.81
2018-07-28T07:56:51.559Z,26.71
2018-07-28T07:59:20.652Z,26.69
2018-07-28T08:01:49.753Z,26.69
2018-07-28T08:04:18.861Z,26.78
2018-07-28T08:06:48.458Z,26.82
2018-07-28T08:09:17.521Z,26.95
2018-07-28T08:11:46.635Z,27.01
2018-07-28T08:14:15.727Z,26.97
2018-07-28T08:16:44.876Z,26.96
2018-07-28T08:19:13.954Z,26.96
2018-07-28T08:21:43.517Z,27.06
2018-07-28T08:24:13.056Z,27.11
2018-07-28T08:26:42.275Z,27.23
2018-07-28T08:29:11.570Z,27.28
2018-07-28T08:31:40.660Z,27.44
2018-07-28T08:34:10.270Z,27.55
2018-07-28T08:36:39.376Z,27.76
2018-07-28T08:39:12.456Z,27.87
2018-07-28T08:41:42.385Z,28.03
2018-07-28T08:44:11.603Z,28.17
2018-07-28T08:46:41.236Z,28.21
2018-07-28T08:49:10.383Z,28.33
2018-07-28T08:51:39.445Z,28.46
2018-07-28T08:54:08.581Z,28.46
2018-07-28T08:56:37.718Z,28.57
2018-07-28T08:59:06.962Z,28.76
2018-07-28T09:01:36.149Z,28.91
2018-07-28T09:04:05.239Z,28.89
2018-07-28T09:06:35.023Z,29.05
2018-07-28T09:09:06.229Z,27.82
2018-07-28T09:11:35.353Z,29.33
2018-07-28T09:14:04.569Z,29.25
2018-07-28T09:16:33.740Z,29.30
2018-07-28T09:19:02.751Z,29.50
2018-07-28T09:21:31.826Z,29.57
2018-07-28T09:24:01.075Z,29.51
2018-07-28T09:26:30.295Z,29.61
2018-07-28T09:28:59.595Z,29.63
2018-07-28T09:31:28.621Z,29.47
2018-07-28T09:33:58.154Z,29.40
2018-07-28T09:36:27.374Z,29.62
2018-07-28T09:38:56.498Z,29.57
2018-07-28T09:41:25.623Z,29.61
2018-07-28T09:43:54.818Z,29.60
2018-07-28T09:46:24.501Z,29.53
2018-07-28T09:48:53.512Z,29.47
2018-07-28T09:51:22.546Z,29.50
2018-07-28T09:53:51.651Z,29.66
2018-07-28T09:56:20.785Z,29.90
2018-07-28T09:58:49.882Z,29.88
2018-07-28T10:01:22.387Z,29.83
2018-07-28T10:03:52.132Z,29.89
2018-07-28T10:06:21.390Z,29.96
2018-07-28T10:08:50.534Z,30.09
2018-07-28T10:11:19.682Z,30.25
2018-07-28T10:13:48.802Z,30.17
2018-07-28T10:16:18.331Z,30.25
2018-07-28T10:18:47.453Z,30.27
2018-07-28T10:21:16.603Z,30.01
2018-07-28T10:23:46.001Z,29.90
2018-07-28T10:26:15.218Z,29.83
2018-07-28T10:28:44.408Z,29.92
2018-07-28T10:31:13.475Z,30.08
2018-07-28T10:33:42.685Z,30.24
2018-07-28T10:36:11.902Z,30.45
2018-07-28T10:38:41.088Z,30.62
2018-07-28T10:41:10.286Z,30.60
2018-07-28T10:43:39.363Z,30.31
2018-07-28T10:46:08.607Z,30.25
2018-07-28T10:48:37.890Z,30.39
2018-07-28T10:51:07.745Z,30.33
2018-07-28T10:53:36.887Z,30.36
2018-07-28T10:56:06.039Z,30.51
2018-07-28T10:58:35.198Z,30.60
2018-07-28T11:01:05.282Z,30.54
2018-07-28T11:03:34.514Z,30.22
2018-07-28T11:06:03.915Z,29.87
2018-07-28T11:08:32.997Z,29.88
2018-07-28T11:11:02.335Z,30.20
2018-07-28T11:13:31.547Z,30.43
2018-07-28T11:16:00.642Z,30.52
2018-07-28T11:18:29.829Z,30.82
2018-07-28T11:20:58.977Z,30.80
2018-07-28T11:23:39.748Z,30.80
2018-07-28T11:26:08.874Z,31.01
2018-07-28T11:28:37.993Z,31.12
2018-07-28T11:31:17.085Z,31.19
2018-07-28T11:33:57.503Z,31.41
2018-07-28T11:36:37.797Z,31.47
2018-07-28T11:39:18.879Z,31.34
2018-07-28T11:41:59.568Z,31.25
2018-07-28T11:44:39.786Z,31.56
2018-07-28T11:47:08.917Z,31.82
2018-07-28T11:49:38.137Z,31.91
2018-07-28T11:52:07.275Z,28.58
2018-07-28T11:54:36.409Z,32.10
2018-07-28T11:57:05.510Z,32.18
2018-07-28T11:59:34.590Z,32.38
2018-07-28T12:02:03.807Z,32.44
2018-07-28T12:04:32.934Z,32.56
2018-07-28T12:07:02.119Z,32.32
2018-07-28T12:09:31.221Z,31.84
2018-07-28T12:12:00.391Z,31.52
2018-07-28T12:14:29.517Z,31.43
2018-07-28T12:16:58.678Z,31.06
2018-07-28T12:19:27.813Z,31.00
2018-07-28T12:21:57.184Z,31.09
2018-07-28T12:24:26.378Z,31.41
2018-07-28T12:26:55.466Z,31.66
2018-07-28T12:29:24.595Z,31.75
2018-07-28T12:31:53.707Z,32.21
2018-07-28T12:34:22.766Z,32.55
2018-07-28T12:36:51.903Z,32.74
2018-07-28T12:39:21.051Z,32.81
2018-07-28T12:41:50.156Z,32.66
2018-07-28T12:44:19.202Z,32.50
2018-07-28T12:46:48.332Z,32.71
2018-07-28T12:49:17.465Z,32.98
2018-07-28T12:51:46.541Z,32.91
2018-07-28T12:54:15.644Z,32.92
2018-07-28T12:56:45.098Z,33.28
2018-07-28T12:59:14.179Z,32.80
2018-07-28T13:01:43.387Z,32.25
2018-07-28T13:04:12.654Z,32.32
2018-07-28T13:06:41.835Z,32.61
2018-07-28T13:09:12.216Z,32.47
2018-07-28T13:11:41.767Z,32.58
2018-07-28T13:14:11.423Z,32.62
2018-07-28T13:16:40.706Z,32.61
2018-07-28T13:19:10.241Z,32.45
2018-07-28T13:21:39.453Z,32.49
2018-07-28T13:24:08.650Z,32.53
2018-07-28T13:26:37.808Z,32.84
2018-07-28T13:29:07.763Z,32.47
2018-07-28T13:31:36.942Z,32.02
2018-07-28T13:34:06.046Z,31.90
2018-07-28T13:36:35.182Z,31.75
2018-07-28T13:39:05.663Z,31.86
2018-07-28T13:41:34.846Z,32.12
2018-07-28T13:44:05.315Z,32.13
2018-07-28T13:46:34.357Z,32.48
2018-07-28T13:49:03.504Z,33.00
2018-07-28T13:51:32.611Z,33.35
2018-07-28T13:54:01.701Z,33.44
2018-07-28T13:56:30.766Z,33.38
2018-07-28T13:58:59.892Z,33.47
2018-07-28T14:01:29.578Z,33.17
2018-07-28T14:03:58.720Z,33.20
2018-07-28T14:06:28.347Z,33.73
2018-07-28T14:08:57.587Z,33.69
2018-07-28T14:11:26.748Z,33.63
2018-07-28T14:13:55.951Z,33.32
2018-07-28T14:16:25.200Z,33.00
2018-07-28T14:18:54.394Z,32.58
2018-07-28T14:21:23.583Z,32.31
2018-07-28T14:23:52.606Z,32.39
2018-07-28T14:26:21.765Z,32.21
2018-07-28T14:28:51.006Z,32.07
2018-07-28T14:31:20.214Z,32.13
2018-07-28T14:33:49.732Z,31.81
2018-07-28T14:36:18.833Z,31.70
2018-07-28T14:38:47.925Z,31.98
2018-07-28T14:41:18.964Z,32.35
2018-07-28T14:43:48.129Z,32.38
2018-07-28T14:46:17.350Z,32.50
2018-07-28T14:48:46.473Z,32.67
2018-07-28T14:51:15.670Z,32.45
2018-07-28T14:53:44.766Z,32.07
2018-07-28T14:56:14.466Z,31.85
2018-07-28T14:58:43.676Z,31.72
2018-07-28T15:01:12.765Z,31.96
2018-07-28T15:03:41.898Z,32.21
2018-07-28T15:06:11.174Z,32.33
2018-07-28T15:08:40.365Z,32.81
2018-07-28T15:11:09.468Z,33.29
2018-07-28T15:13:38.777Z,33.69
2018-07-28T15:16:08.483Z,33.61
2018-07-28T15:18:37.575Z,33.99
2018-07-28T15:21:06.812Z,34.32
2018-07-28T15:23:35.890Z,34.44
2018-07-28T15:26:05.026Z,34.59
2018-07-28T15:28:34.156Z,35.05
2018-07-28T15:31:03.239Z,35.23
2018-07-28T15:33:32.405Z,35.11
2018-07-28T15:36:01.450Z,35.39
2018-07-28T15:38:30.580Z,35.51
2018-07-28T15:40:59.679Z,35.17
2018-07-28T15:43:28.770Z,34.96
2018-07-28T15:45:58.228Z,34.64
2018-07-28T15:48:27.327Z,34.27
2018-07-28T15:50:56.454Z,34.33
2018-07-28T15:53:25.651Z,34.35
2018-07-28T15:55:54.779Z,34.39
2018-07-28T15:58:23.811Z,34.28
2018-07-28T16:00:52.940Z,34.81
2018-07-28T16:03:22.036Z,35.41
2018-07-28T16:05:51.094Z,35.71
2018-07-28T16:08:20.181Z,35.31
2018-07-28T16:10:49.458Z,34.57
2018-07-28T16:13:18.542Z,34.53
2018-07-28T16:15:47.721Z,34.80
2018-07-28T16:18:16.801Z,34.88
2018-07-28T16:20:46.031Z,34.90
2018-07-28T16:23:15.089Z,34.67
2018-07-28T16:25:44.169Z,34.29
2018-07-28T16:28:13.302Z,33.80
2018-07-28T16:30:42.426Z,33.59
2018-07-28T16:33:11.571Z,33.05
2018-07-28T16:35:40.639Z,32.85
2018-07-28T16:38:09.719Z,32.92
2018-07-28T16:40:38.819Z,32.55
2018-07-28T16:43:07.941Z,32.59
2018-07-28T16:45:37.070Z,32.59
2018-07-28T16:48:06.181Z,32.49
2018-07-28T16:50:35.599Z,32.35
2018-07-28T16:53:04.731Z,32.01
2018-07-28T16:55:37.221Z,31.98
2018-07-28T16:58:06.325Z,31.99
2018-07-28T17:00:35.473Z,31.87
2018-07-28T17:03:04.595Z,31.74
2018-07-28T17:05:33.907Z,31.60
2018-07-28T17:08:03.161Z,31.63
2018-07-28T17:10:32.253Z,31.37
2018-07-28T17:13:01.358Z,31.37
2018-07-28T17:15:30.453Z,31.22
2018-07-28T17:17:59.611Z,31.22
2018-07-28T17:20:28.679Z,31.12
2018-07-28T17:22:57.827Z,31.19
2018-07-28T17:25:26.910Z,31.36
2018-07-28T17:27:56.015Z,31.17
2018-07-28T17:30:25.101Z,31.22
2018-07-28T17:32:54.290Z,31.08
2018-07-28T17:35:23.665Z,31.10
2018-07-28T17:37:52.847Z,30.93
2018-07-28T17:40:21.907Z,30.96
2018-07-28T17:42:51.061Z,30.73
2018-07-28T17:45:20.099Z,30.69
2018-07-28T17:47:49.225Z,30.53
2018-07-28T17:50:18.305Z,30.46
2018-07-28T17:52:47.433Z,30.54
2018-07-28T17:55:16.549Z,30.50
2018-07-28T17:57:45.652Z,30.43
2018-07-28T18:00:14.801Z,30.40
2018-07-28T18:02:43.945Z,30.38
2018-07-28T18:05:13.331Z,30.23
2018-07-28T18:07:42.569Z,30.20
2018-07-28T18:10:11.564Z,30.15
2018-07-28T18:12:40.725Z,30.02
2018-07-28T18:15:09.819Z,30.10
2018-07-28T18:17:38.939Z,30.00
2018-07-28T18:20:08.033Z,29.89
2018-07-28T18:22:37.127Z,29.84
2018-07-28T18:25:06.224Z,29.91
2018-07-28T18:27:35.326Z,29.77
2018-07-28T18:30:04.734Z,29.74
2018-07-28T18:32:33.919Z,29.73
2018-07-28T18:35:03.042Z,29.72
2018-07-28T18:37:32.143Z,29.64
2018-07-28T18:40:01.303Z,29.62
2018-07-28T18:42:30.622Z,29.56
2018-07-28T18:44:59.814Z,29.45
2018-07-28T18:47:28.933Z,29.42
2018-07-28T18:49:58.983Z,29.37
2018-07-28T18:52:28.049Z,29.30
2018-07-28T18:54:57.316Z,29.32
2018-07-28T18:57:26.382Z,29.27
2018-07-28T18:59:55.562Z,29.26
2018-07-28T19:02:24.727Z,29.21
2018-07-28T19:04:53.850Z,29.15
2018-07-28T19:07:23.047Z,29.10
2018-07-28T19:09:52.978Z,29.05
2018-07-28T19:12:27.798Z,28.94
2018-07-28T19:14:56.893Z,28.88
2018-07-28T19:17:31.476Z,28.80
2018-07-28T19:20:00.737Z,28.74
2018-07-28T19:22:35.616Z,28.70
2018-07-28T19:25:04.754Z,28.68
2018-07-28T19:27:34.253Z,28.58
2018-07-28T19:30:03.424Z,28.49
2018-07-28T19:32:32.680Z,28.52
2018-07-28T19:35:01.832Z,28.52
2018-07-28T19:37:30.970Z,28.56
2018-07-28T19:40:00.196Z,28.44
2018-07-28T19:42:34.721Z,28.24
2018-07-28T19:45:03.808Z,28.21
2018-07-28T19:47:32.899Z,28.21
2018-07-28T19:50:01.947Z,28.21
2018-07-28T19:52:31.061Z,28.13
2018-07-28T19:55:00.159Z,28.15
2018-07-28T19:57:29.302Z,28.22
2018-07-28T19:59:59.160Z,28.29
2018-07-28T20:02:28.412Z,28.26
2018-07-28T20:04:57.556Z,28.19
2018-07-28T20:07:26.710Z,28.17
2018-07-28T20:09:55.810Z,28.25
2018-07-28T20:12:24.905Z,28.18
2018-07-28T20:14:55.936Z,28.18
2018-07-28T20:17:25.094Z,28.14
2018-07-28T20:19:54.178Z,28.01
2018-07-28T20:22:23.225Z,27.90
2018-07-28T20:24:52.377Z,27.92
2018-07-28T20:27:21.452Z,27.92
2018-07-28T20:29:50.530Z,27.87
2018-07-28T20:32:19.760Z,27.85
2018-07-28T20:34:48.884Z,27.79
2018-07-28T20:37:17.986Z,27.77
2018-07-28T20:39:47.153Z,27.70
2018-07-28T20:42:16.225Z,27.71
2018-07-28T20:44:45.582Z,27.69
2018-07-28T20:47:15.039Z,27.71
2018-07-28T20:49:44.190Z,27.72
2018-07-28T20:52:14.107Z,27.55
2018-07-28T20:54:43.203Z,27.42
2018-07-28T20:57:12.478Z,27.21
2018-07-28T20:59:41.540Z,27.15
2018-07-28T21:02:10.593Z,27.10
2018-07-28T21:04:39.739Z,27.05
2018-07-28T21:07:08.802Z,27.01
2018-07-28T21:09:37.952Z,27.01
2018-07-28T21:12:07.056Z,26.89
2018-07-28T21:14:36.194Z,26.90
2018-07-28T21:17:05.469Z,26.83
2018-07-28T21:19:34.553Z,26.79
2018-07-28T21:22:03.622Z,26.78
2018-07-28T21:24:32.716Z,26.73
2018-07-28T21:27:01.805Z,26.82
2018-07-28T21:29:30.918Z,26.68
2018-07-28T21:32:00.051Z,26.58
2018-07-28T21:34:29.174Z,26.49
2018-07-28T21:36:58.314Z,26.44
2018-07-28T21:39:27.883Z,26.38
2018-07-28T21:41:56.939Z,26.29
2018-07-28T21:44:26.029Z,26.19
2018-07-28T21:46:55.085Z,26.09
2018-07-28T21:49:24.218Z,26.11
2018-07-28T21:51:53.261Z,25.90
2018-07-28T21:54:22.815Z,25.94
2018-07-28T21:56:51.886Z,25.90
2018-07-28T21:59:20.930Z,25.77
2018-07-28T22:01:50.359Z,25.68
2018-07-28T22:04:25.462Z,25.33
2018-07-28T22:06:54.601Z,24.92
2018-07-28T22:09:23.782Z,25.01
2018-07-28T22:11:52.943Z,25.28
2018-07-28T22:14:22.145Z,25.21
2018-07-28T22:16:51.216Z,25.08
2018-07-28T22:19:20.339Z,25.19
2018-07-28T22:21:49.465Z,25.11
2018-07-28T22:24:18.678Z,24.89
2018-07-28T22:26:47.762Z,24.95
2018-07-28T22:29:16.835Z,25.08
2018-07-28T22:31:45.913Z,25.08
2018-07-28T22:34:15.027Z,25.02
2018-07-28T22:36:44.058Z,25.08
2018-07-28T22:39:13.204Z,25.08
2018-07-28T22:41:42.285Z,24.95
2018-07-28T22:44:11.406Z,24.91
2018-07-28T22:46:40.491Z,24.79
2018-07-28T22:49:09.602Z,24.74
2018-07-28T22:51:38.683Z,24.81
2018-07-28T22:54:07.834Z,24.79
2018-07-28T22:56:36.953Z,24.69
2018-07-28T22:59:06.234Z,24.65
2018-07-28T23:01:35.307Z,24.49
2018-07-28T23:04:04.429Z,24.32
2018-07-28T23:06:33.603Z,24.29
2018-07-28T23:09:02.795Z,24.16
2018-07-28T23:11:31.994Z,24.18
2018-07-28T23:14:01.095Z,24.24
2018-07-28T23:16:30.244Z,23.97
2018-07-28T23:18:59.380Z,24.08
2018-07-28T23:21:28.472Z,24.09
2018-07-28T23:23:57.702Z,24.11
2018-07-28T23:26:26.777Z,24.12
2018-07-28T23:28:55.959Z,24.16
2018-07-28T23:31:25.073Z,24.09
2018-07-28T23:33:54.226Z,24.01
2018-07-28T23:36:23.349Z,23.85
2018-07-28T23:38:52.551Z,23.93
2018-07-28T23:41:21.711Z,23.92
2018-07-28T23:43:50.746Z,23.92
2018-07-28T23:46:19.873Z,23.76
2018-07-28T23:48:48.950Z,23.73
2018-07-28T23:51:18.030Z,23.74
2018-07-28T23:53:47.089Z,23.51
2018-07-28T23:56:16.226Z,23.49
2018-07-28T23:58:45.312Z,23.37
